Montclair, California
Current Conditions -  °F | °C
As of 10:53 AM on Monday 22 Dec 2014 (Local Time) from KONT Reporting Station
Clear Clear  
Wind Chill: 66°   Ceiling: Unl
Heat Index: 66°   Visibility: 10mi
Dew Point: 46°   Wind: 0mph
Humidity: 48%   Direction: NA
Pressure: 30.04"   Gusts: NA
Location:  34.07°N, 117.69°W
Report Text: KONT 221853Z 00000KT 10SM CLR 19/08 A3004 RMK AO2 SLP166 T01890078
Loading
Personal Weather Stations






























Interactive Weather Map New forecast layout! Learn more

10-Day Weather Forecast

Advertisements
Track Severe Weather on mobile